createdAt,value
2022-11-08T00:02:25.175Z,7.30
2022-11-08T00:04:51.821Z,7.20
2022-11-08T00:07:37.040Z,7.30
2022-11-08T00:10:22.615Z,7.30
2022-11-08T00:13:07.974Z,7.30
2022-11-08T00:15:38.350Z,7.20
2022-11-08T00:18:08.325Z,7.20
2022-11-08T00:20:35.062Z,7.10
2022-11-08T00:23:01.852Z,7.10
2022-11-08T00:25:28.483Z,7.10
2022-11-08T00:27:55.188Z,7.00
2022-11-08T00:30:21.863Z,7.10
2022-11-08T00:32:48.453Z,7.10
2022-11-08T00:35:15.116Z,7.20
2022-11-08T00:37:41.693Z,7.20
2022-11-08T00:40:08.759Z,7.00
2022-11-08T00:42:35.441Z,7.00
2022-11-08T00:45:02.167Z,7.00
2022-11-08T00:47:28.723Z,6.80
2022-11-08T00:49:55.347Z,6.80
2022-11-08T00:52:21.972Z,6.80
2022-11-08T00:54:48.561Z,6.90
2022-11-08T00:57:15.174Z,6.90
2022-11-08T00:59:41.733Z,6.90
2022-11-08T01:02:08.372Z,6.80
2022-11-08T01:04:35.068Z,6.90
2022-11-08T01:07:01.718Z,6.90
2022-11-08T01:09:28.291Z,6.90
2022-11-08T01:11:54.838Z,6.90
2022-11-08T01:14:21.400Z,6.90
2022-11-08T01:16:48.005Z,6.90
2022-11-08T01:19:14.576Z,6.90
2022-11-08T01:21:41.261Z,6.80
2022-11-08T01:24:08.420Z,6.80
2022-11-08T01:26:35.064Z,6.80
2022-11-08T01:29:01.712Z,6.80
2022-11-08T01:31:32.283Z,6.80
2022-11-08T01:33:59.879Z,6.70
2022-11-08T01:36:27.576Z,6.80
2022-11-08T01:38:54.821Z,6.80
2022-11-08T01:41:23.891Z,6.80
2022-11-08T01:43:58.959Z,6.80
2022-11-08T01:46:38.713Z,6.80
2022-11-08T01:49:32.649Z,6.80
2022-11-08T01:52:39.063Z,6.80
2022-11-08T01:55:21.298Z,6.80
2022-11-08T01:57:53.702Z,6.70
2022-11-08T02:00:20.559Z,6.70
2022-11-08T02:02:59.171Z,6.70
2022-11-08T02:05:27.402Z,6.70
2022-11-08T02:08:24.596Z,6.60
2022-11-08T02:10:53.091Z,6.70
2022-11-08T02:13:26.315Z,6.60
2022-11-08T02:15:52.998Z,6.50
2022-11-08T02:18:22.018Z,6.50
2022-11-08T02:21:08.349Z,6.50
2022-11-08T02:23:48.356Z,6.50
2022-11-08T02:26:16.869Z,6.50
2022-11-08T02:28:45.835Z,6.50
2022-11-08T02:31:14.273Z,6.50
2022-11-08T02:33:41.519Z,6.40
2022-11-08T02:36:11.540Z,6.40
2022-11-08T02:38:44.737Z,6.40
2022-11-08T02:41:11.510Z,6.40
2022-11-08T02:43:38.332Z,6.30
2022-11-08T02:46:04.999Z,6.30
2022-11-08T02:48:31.650Z,6.30
2022-11-08T02:50:58.248Z,6.30
2022-11-08T02:53:24.853Z,6.30
2022-11-08T02:55:51.516Z,6.30
2022-11-08T02:58:18.436Z,6.30
2022-11-08T03:00:45.196Z,6.40
2022-11-08T03:03:11.848Z,6.40
2022-11-08T03:05:38.492Z,6.40
2022-11-08T03:08:05.213Z,6.40
2022-11-08T03:10:31.907Z,6.40
2022-11-08T03:13:01.062Z,6.30
2022-11-08T03:15:28.718Z,6.30
2022-11-08T03:17:56.070Z,6.30
2022-11-08T03:20:22.681Z,6.30
2022-11-08T03:22:58.476Z,6.40
2022-11-08T03:25:26.166Z,6.40
2022-11-08T03:27:52.817Z,6.40
2022-11-08T03:30:20.104Z,6.40
2022-11-08T03:32:47.414Z,6.40
2022-11-08T03:35:14.640Z,6.30
2022-11-08T03:37:41.439Z,6.20
2022-11-08T03:40:08.862Z,6.20
2022-11-08T03:42:35.420Z,6.30
2022-11-08T03:45:01.986Z,6.20
2022-11-08T03:47:28.540Z,6.20
2022-11-08T03:49:55.113Z,6.20
2022-11-08T03:52:21.675Z,6.30
2022-11-08T03:54:48.233Z,6.30
2022-11-08T03:57:14.826Z,6.20
2022-11-08T03:59:41.415Z,6.20
2022-11-08T04:02:08.084Z,6.20
2022-11-08T04:04:34.732Z,6.20
2022-11-08T04:07:01.296Z,6.10
2022-11-08T04:09:27.828Z,6.10
2022-11-08T04:12:13.034Z,6.20
2022-11-08T04:14:58.097Z,6.20
2022-11-08T04:17:44.625Z,6.20
2022-11-08T04:20:29.739Z,6.20
2022-11-08T04:22:56.292Z,6.20
2022-11-08T04:25:22.838Z,6.20
2022-11-08T04:27:49.394Z,6.20
2022-11-08T04:30:16.010Z,6.20
2022-11-08T04:32:42.562Z,6.10
2022-11-08T04:35:09.220Z,6.00
2022-11-08T04:37:35.852Z,6.00
2022-11-08T04:40:02.439Z,5.90
2022-11-08T04:42:28.988Z,5.90
2022-11-08T04:44:55.532Z,5.90
2022-11-08T04:47:22.069Z,5.90
2022-11-08T04:49:48.640Z,6.00
2022-11-08T04:52:16.418Z,6.00
2022-11-08T04:54:44.664Z,6.00
2022-11-08T04:57:12.081Z,6.00
2022-11-08T04:59:39.280Z,5.90
2022-11-08T05:02:06.032Z,5.90
2022-11-08T05:04:32.680Z,5.90
2022-11-08T05:06:59.301Z,6.00
2022-11-08T05:09:25.868Z,5.90
2022-11-08T05:11:52.443Z,5.90
2022-11-08T05:14:19.115Z,6.00
2022-11-08T05:16:45.685Z,6.00
2022-11-08T05:19:13.512Z,6.00
2022-11-08T05:21:58.754Z,6.00
2022-11-08T05:24:25.429Z,6.00
2022-11-08T05:26:52.762Z,6.00
2022-11-08T05:29:19.428Z,6.00
2022-11-08T05:31:46.243Z,6.00
2022-11-08T05:34:13.035Z,6.00
2022-11-08T05:36:39.622Z,6.00
2022-11-08T05:39:06.222Z,6.00
2022-11-08T05:41:32.764Z,6.10
2022-11-08T05:43:59.349Z,6.10
2022-11-08T05:46:25.916Z,6.20
2022-11-08T05:48:52.812Z,6.20
2022-11-08T05:51:20.006Z,6.20
2022-11-08T05:53:48.386Z,6.20
2022-11-08T05:56:15.468Z,6.20
2022-11-08T05:58:42.075Z,6.20
2022-11-08T06:01:11.578Z,6.20
2022-11-08T06:03:38.961Z,6.20
2022-11-08T06:06:11.283Z,6.20
2022-11-08T06:08:39.208Z,6.10
2022-11-08T06:11:08.290Z,6.10
2022-11-08T06:13:35.419Z,6.10
2022-11-08T06:16:07.636Z,6.10
2022-11-08T06:18:35.080Z,6.00
2022-11-08T06:21:03.131Z,6.00
2022-11-08T06:23:30.009Z,6.00
2022-11-08T06:25:56.816Z,6.00
2022-11-08T06:28:23.574Z,6.00
2022-11-08T06:30:50.931Z,6.00
2022-11-08T06:33:18.229Z,6.00
2022-11-08T06:35:45.091Z,6.10
2022-11-08T06:38:11.929Z,6.10
2022-11-08T06:40:39.282Z,6.10
2022-11-08T06:43:06.567Z,6.00
2022-11-08T06:45:33.404Z,6.00
2022-11-08T06:48:01.559Z,6.00
2022-11-08T06:50:29.448Z,6.00
2022-11-08T06:53:01.443Z,6.00
2022-11-08T06:55:28.889Z,6.10
2022-11-08T06:57:55.875Z,6.00
2022-11-08T07:00:22.658Z,6.00
2022-11-08T07:02:57.584Z,6.10
2022-11-08T07:05:25.602Z,6.10
2022-11-08T07:07:52.792Z,6.20
2022-11-08T07:10:21.332Z,6.20
2022-11-08T07:12:48.104Z,6.20
2022-11-08T07:15:15.512Z,6.20
2022-11-08T07:17:42.158Z,6.20
2022-11-08T07:20:09.401Z,6.30
2022-11-08T07:22:36.008Z,6.30
2022-11-08T07:25:02.623Z,6.40
2022-11-08T07:27:29.255Z,6.40
2022-11-08T07:29:55.870Z,6.50
2022-11-08T07:32:22.556Z,6.50
2022-11-08T07:34:49.246Z,6.60
2022-11-08T07:37:15.827Z,6.60
2022-11-08T07:39:42.479Z,6.70
2022-11-08T07:42:09.368Z,6.90
2022-11-08T07:44:36.072Z,7.00
2022-11-08T07:47:02.778Z,7.00
2022-11-08T07:49:29.377Z,7.10
2022-11-08T07:51:55.989Z,7.10
2022-11-08T07:54:22.589Z,7.10
2022-11-08T07:56:49.269Z,7.20
2022-11-08T07:59:16.008Z,7.30
2022-11-08T08:01:42.690Z,7.40
2022-11-08T08:04:12.092Z,7.40
2022-11-08T08:06:38.713Z,7.40
2022-11-08T08:09:05.363Z,7.50
2022-11-08T08:11:33.915Z,7.60
2022-11-08T08:14:00.678Z,7.60
2022-11-08T08:16:27.319Z,7.70
2022-11-08T08:18:56.696Z,7.70
2022-11-08T08:21:23.686Z,7.70
2022-11-08T08:23:50.365Z,7.80
2022-11-08T08:26:16.996Z,7.80
2022-11-08T08:28:43.647Z,7.90
2022-11-08T08:31:10.396Z,7.90
2022-11-08T08:33:37.787Z,8.00
2022-11-08T08:36:05.197Z,8.00
2022-11-08T08:38:33.469Z,8.00
2022-11-08T08:41:01.289Z,8.10
2022-11-08T08:43:28.947Z,8.20
2022-11-08T08:45:59.868Z,8.20
2022-11-08T08:48:26.505Z,8.40
2022-11-08T08:50:53.171Z,8.40
2022-11-08T08:53:20.331Z,8.40
2022-11-08T08:55:48.081Z,8.50
2022-11-08T08:58:14.779Z,8.60
2022-11-08T09:03:28.054Z,8.80
2022-11-08T09:05:57.661Z,8.90
2022-11-08T09:08:24.787Z,8.90
2022-11-08T09:10:55.815Z,9.00
2022-11-08T09:13:23.595Z,9.10
2022-11-08T09:15:50.510Z,9.10
2022-11-08T09:18:17.634Z,9.20
2022-11-08T09:20:44.405Z,9.20
2022-11-08T09:23:12.188Z,9.30
2022-11-08T09:25:38.824Z,9.30
2022-11-08T09:28:06.031Z,9.30
2022-11-08T09:30:32.788Z,9.40
2022-11-08T09:33:01.283Z,9.50
2022-11-08T09:35:29.124Z,9.50
2022-11-08T09:37:56.322Z,9.50
2022-11-08T09:40:41.595Z,9.60
2022-11-08T09:43:32.815Z,9.60
2022-11-08T09:45:59.503Z,9.60
2022-11-08T09:48:34.772Z,9.60
2022-11-08T09:51:07.401Z,9.70
2022-11-08T09:53:53.624Z,9.70
2022-11-08T09:56:36.684Z,9.80
2022-11-08T09:59:18.228Z,9.80
2022-11-08T10:01:44.985Z,9.90
2022-11-08T10:04:27.232Z,9.90
2022-11-08T10:07:13.324Z,9.90
2022-11-08T10:09:48.972Z,9.90
2022-11-08T10:12:25.409Z,10.00
2022-11-08T10:15:06.069Z,10.00
2022-11-08T10:17:57.167Z,10.00
2022-11-08T10:20:53.956Z,10.10
2022-11-08T10:23:37.204Z,10.10
2022-11-08T10:26:12.029Z,10.10
2022-11-08T10:28:55.065Z,10.30
2022-11-08T10:31:21.850Z,10.20
2022-11-08T10:33:50.968Z,10.30
2022-11-08T10:36:38.617Z,10.40
2022-11-08T10:39:21.063Z,10.40
2022-11-08T10:42:15.550Z,10.50
2022-11-08T10:44:43.477Z,10.60
2022-11-08T10:47:24.061Z,10.70
2022-11-08T10:49:52.250Z,10.70
2022-11-08T10:52:22.253Z,10.80
2022-11-08T10:54:54.103Z,10.80
2022-11-08T10:57:25.634Z,10.90
2022-11-08T10:59:53.498Z,11.00
2022-11-08T11:02:29.266Z,11.10
2022-11-08T11:05:16.956Z,11.20
2022-11-08T11:08:09.482Z,11.30
2022-11-08T11:10:35.994Z,11.30
2022-11-08T11:13:02.588Z,11.40
2022-11-08T11:16:00.011Z,11.50
2022-11-08T11:18:49.434Z,11.60
2022-11-08T11:21:19.460Z,11.70
2022-11-08T11:24:05.726Z,11.70
2022-11-08T11:26:35.030Z,11.80
2022-11-08T11:29:04.489Z,11.80
2022-11-08T11:31:32.172Z,11.80
2022-11-08T11:33:59.761Z,11.80
2022-11-08T11:36:30.118Z,11.90
2022-11-08T11:39:05.819Z,11.90
2022-11-08T11:41:55.276Z,12.00
2022-11-08T11:44:25.946Z,12.00
2022-11-08T11:47:01.923Z,12.10
2022-11-08T11:49:30.708Z,12.10
2022-11-08T11:51:58.367Z,12.20
2022-11-08T11:54:29.807Z,12.30
2022-11-08T11:57:14.533Z,12.30
2022-11-08T11:59:59.473Z,12.30
2022-11-08T12:02:45.752Z,12.40
2022-11-08T12:05:51.498Z,12.50
2022-11-08T12:08:30.003Z,12.50
2022-11-08T12:11:02.330Z,12.60
2022-11-08T12:14:07.784Z,12.60
2022-11-08T12:17:03.968Z,12.70
2022-11-08T12:19:49.452Z,12.70
2022-11-08T12:22:44.401Z,12.80
2022-11-08T12:25:23.718Z,12.80
2022-11-08T12:28:04.868Z,12.90
2022-11-08T12:30:36.986Z,12.90
2022-11-08T12:33:36.614Z,13.00
2022-11-08T12:36:23.463Z,13.00
2022-11-08T12:39:32.052Z,13.00
2022-11-08T12:42:19.900Z,13.10
2022-11-08T12:45:19.041Z,13.10
2022-11-08T12:48:13.725Z,13.10
2022-11-08T12:51:16.707Z,13.10
2022-11-08T12:54:17.200Z,13.10
2022-11-08T12:56:49.496Z,13.10
2022-11-08T12:59:25.415Z,13.10
2022-11-08T13:01:53.414Z,13.20
2022-11-08T13:04:25.505Z,13.20
2022-11-08T13:07:11.530Z,13.20
2022-11-08T13:10:04.122Z,13.30
2022-11-08T13:13:05.581Z,13.30
2022-11-08T13:15:32.391Z,13.20
2022-11-08T13:18:09.566Z,13.30
2022-11-08T13:20:47.203Z,13.30
2022-11-08T13:23:23.917Z,13.30
2022-11-08T13:25:51.727Z,13.40
2022-11-08T13:28:35.863Z,13.40
2022-11-08T13:31:15.324Z,13.40
2022-11-08T13:34:03.687Z,13.40
2022-11-08T13:37:02.682Z,13.50
2022-11-08T13:39:56.232Z,13.50
2022-11-08T13:42:22.755Z,13.50
2022-11-08T13:44:55.425Z,13.60
2022-11-08T13:47:34.121Z,13.60
2022-11-08T13:50:28.612Z,13.60
2022-11-08T13:53:20.108Z,13.70
2022-11-08T13:55:55.957Z,13.70
2022-11-08T13:58:39.118Z,13.70
2022-11-08T14:01:22.763Z,13.80
2022-11-08T14:03:53.814Z,13.70
2022-11-08T14:06:32.282Z,13.70
2022-11-08T14:09:11.194Z,13.80
2022-11-08T14:12:01.927Z,13.80
2022-11-08T14:14:35.256Z,13.80
2022-11-08T14:17:23.472Z,13.80
2022-11-08T14:19:51.867Z,13.80
2022-11-08T14:22:28.119Z,13.80
2022-11-08T14:25:00.893Z,13.80
2022-11-08T14:27:37.078Z,13.80
2022-11-08T14:30:14.583Z,13.80
2022-11-08T14:32:41.209Z,13.80
2022-11-08T14:35:28.237Z,13.80
2022-11-08T14:37:54.846Z,13.80
2022-11-08T14:40:26.403Z,13.90
2022-11-08T14:42:54.093Z,13.80
2022-11-08T14:45:25.874Z,13.90
2022-11-08T14:47:59.157Z,13.90
2022-11-08T14:50:32.521Z,13.80
2022-11-08T14:53:20.751Z,13.90
2022-11-08T14:55:47.551Z,13.90
2022-11-08T14:58:15.304Z,13.80
2022-11-08T15:00:44.051Z,13.80
2022-11-08T15:03:17.730Z,13.90
2022-11-08T15:05:56.184Z,13.80
2022-11-08T15:09:00.284Z,13.80
2022-11-08T15:11:39.216Z,13.80
2022-11-08T15:14:09.252Z,13.80
2022-11-08T15:16:44.476Z,13.80
2022-11-08T15:19:33.033Z,13.80
2022-11-08T15:22:22.205Z,13.80
2022-11-08T15:24:59.150Z,13.80
2022-11-08T15:27:26.727Z,13.70
2022-11-08T15:30:08.462Z,13.70
2022-11-08T15:32:39.583Z,13.70
2022-11-08T15:35:17.972Z,13.60
2022-11-08T15:37:46.578Z,13.60
2022-11-08T15:40:20.389Z,13.50
2022-11-08T15:42:49.722Z,13.50
2022-11-08T15:45:16.307Z,13.40
2022-11-08T15:47:42.848Z,13.30
2022-11-08T15:50:23.118Z,13.40
2022-11-08T15:52:52.109Z,13.30
2022-11-08T15:55:30.357Z,13.20
2022-11-08T15:57:59.011Z,13.20
2022-11-08T16:00:28.429Z,13.20
2022-11-08T16:02:55.766Z,13.20
2022-11-08T16:05:27.523Z,13.10
2022-11-08T16:07:54.910Z,13.00
2022-11-08T16:10:29.765Z,13.00
2022-11-08T16:12:59.346Z,13.00
2022-11-08T16:15:28.573Z,12.90
2022-11-08T16:17:55.270Z,12.90
2022-11-08T16:20:34.942Z,12.80
2022-11-08T16:23:03.811Z,12.70
2022-11-08T16:25:35.350Z,12.60
2022-11-08T16:28:08.500Z,12.60
2022-11-08T16:30:35.976Z,12.50
2022-11-08T16:33:15.958Z,12.50
2022-11-08T16:35:42.514Z,12.40
2022-11-08T16:38:10.605Z,12.40
2022-11-08T16:40:37.185Z,12.20
2022-11-08T16:43:03.848Z,12.20
2022-11-08T16:46:03.347Z,12.10
2022-11-08T16:48:26.167Z,12.10
2022-11-08T16:51:05.019Z,11.90
2022-11-08T16:53:32.744Z,11.90
2022-11-08T16:55:59.627Z,11.80
2022-11-08T16:58:27.954Z,11.80
2022-11-08T17:00:55.630Z,11.70
2022-11-08T17:03:24.570Z,11.70
2022-11-08T17:05:52.296Z,11.70
2022-11-08T17:08:20.383Z,11.60
2022-11-08T17:10:47.659Z,11.50
2022-11-08T17:13:16.027Z,11.60
2022-11-08T17:15:43.618Z,11.60
2022-11-08T17:18:17.671Z,11.50
2022-11-08T17:20:45.040Z,11.50
2022-11-08T17:23:12.071Z,11.50
2022-11-08T17:25:40.278Z,11.40
2022-11-08T17:28:07.522Z,11.40
2022-11-08T17:30:34.190Z,11.50
2022-11-08T17:33:00.898Z,11.50
2022-11-08T17:35:27.518Z,11.40
2022-11-08T17:37:54.316Z,11.30
2022-11-08T17:40:21.039Z,11.30
2022-11-08T17:42:47.610Z,11.20
2022-11-08T17:45:14.337Z,11.20
2022-11-08T17:47:40.910Z,11.20
2022-11-08T17:50:09.790Z,11.20
2022-11-08T17:52:36.636Z,11.20
2022-11-08T17:55:03.694Z,11.20
2022-11-08T17:57:30.342Z,11.20
2022-11-08T17:59:57.117Z,11.20
2022-11-08T18:02:23.770Z,11.20
2022-11-08T18:04:50.437Z,11.20
2022-11-08T18:07:17.077Z,11.20
2022-11-08T18:09:44.349Z,11.20
2022-11-08T18:12:10.957Z,11.20
2022-11-08T18:14:37.561Z,11.00
2022-11-08T18:17:04.985Z,10.90
2022-11-08T18:19:32.140Z,10.90
2022-11-08T18:22:00.177Z,10.80
2022-11-08T18:24:26.794Z,10.70
2022-11-08T18:26:53.454Z,10.60
2022-11-08T18:29:20.205Z,10.60
2022-11-08T18:31:46.876Z,10.60
2022-11-08T18:34:13.753Z,10.60
2022-11-08T18:36:40.348Z,10.50
2022-11-08T18:39:07.104Z,10.50
2022-11-08T18:41:34.037Z,10.50
2022-11-08T18:44:01.292Z,10.50
2022-11-08T18:46:32.601Z,10.40
2022-11-08T18:48:59.427Z,10.40
2022-11-08T18:51:26.021Z,10.40
2022-11-08T18:53:52.714Z,10.40
2022-11-08T18:56:20.274Z,10.30
2022-11-08T18:58:47.086Z,10.30
2022-11-08T19:01:14.384Z,10.30
2022-11-08T19:03:41.415Z,10.30
2022-11-08T19:06:08.401Z,10.30
2022-11-08T19:08:36.620Z,10.30
2022-11-08T19:11:09.405Z,10.20
2022-11-08T19:13:38.015Z,10.20
2022-11-08T19:16:15.443Z,10.20
2022-11-08T19:18:43.006Z,10.10
2022-11-08T19:21:19.437Z,10.10
2022-11-08T19:23:46.783Z,10.10
2022-11-08T19:26:22.737Z,10.00
2022-11-08T19:28:50.503Z,10.00
2022-11-08T19:31:20.320Z,10.00
2022-11-08T19:33:48.031Z,10.00
2022-11-08T19:36:17.098Z,10.00
2022-11-08T19:38:44.188Z,9.90
2022-11-08T19:41:13.438Z,10.00
2022-11-08T19:43:41.932Z,9.90
2022-11-08T19:46:12.573Z,10.00
2022-11-08T19:48:41.225Z,10.00
2022-11-08T19:51:13.377Z,10.00
2022-11-08T19:53:40.501Z,10.00
2022-11-08T19:56:09.741Z,9.90
2022-11-08T19:58:37.819Z,9.90
2022-11-08T20:01:24.940Z,9.90
2022-11-08T20:03:51.737Z,9.90
2022-11-08T20:06:23.646Z,9.90
2022-11-08T20:08:54.086Z,9.90
2022-11-08T20:11:26.277Z,9.90
2022-11-08T20:13:53.062Z,9.90
2022-11-08T20:16:21.164Z,9.70
2022-11-08T20:18:47.918Z,9.60
2022-11-08T20:21:16.334Z,9.60
2022-11-08T20:23:43.510Z,9.60
2022-11-08T20:26:19.003Z,9.50
2022-11-08T20:28:55.883Z,9.40
2022-11-08T20:31:23.977Z,9.40
2022-11-08T20:33:53.063Z,9.40
2022-11-08T20:36:22.772Z,9.30
2022-11-08T20:38:50.229Z,9.20
2022-11-08T20:41:17.735Z,9.30
2022-11-08T20:43:46.600Z,9.20
2022-11-08T20:46:16.413Z,9.30
2022-11-08T20:48:50.760Z,9.30
2022-11-08T20:51:19.478Z,9.30
2022-11-08T20:53:46.694Z,9.30
2022-11-08T20:56:19.080Z,9.20
2022-11-08T20:58:46.861Z,9.20
2022-11-08T21:01:17.190Z,9.10
2022-11-08T21:03:45.540Z,9.10
2022-11-08T21:06:15.776Z,9.20
2022-11-08T21:09:01.031Z,9.10
2022-11-08T21:11:30.668Z,9.10
2022-11-08T21:13:57.803Z,9.10
2022-11-08T21:16:30.293Z,9.10
2022-11-08T21:18:58.829Z,9.10
2022-11-08T21:21:26.235Z,9.10
2022-11-08T21:23:54.279Z,9.10
2022-11-08T21:26:21.525Z,9.00
2022-11-08T21:28:48.350Z,9.00
2022-11-08T21:31:15.195Z,8.90
2022-11-08T21:33:41.991Z,8.90
2022-11-08T21:36:09.205Z,8.90
2022-11-08T21:38:37.473Z,8.90
2022-11-08T21:41:06.433Z,8.80
2022-11-08T21:43:38.294Z,8.80
2022-11-08T21:46:22.531Z,8.80
2022-11-08T21:48:54.327Z,8.80
2022-11-08T21:51:21.121Z,8.90
2022-11-08T21:53:54.665Z,8.90
2022-11-08T21:56:28.499Z,8.80
2022-11-08T21:58:55.188Z,8.80
2022-11-08T22:01:25.637Z,8.80
2022-11-08T22:03:55.389Z,8.70
2022-11-08T22:06:22.549Z,8.80
2022-11-08T22:08:49.459Z,8.80
2022-11-08T22:11:16.085Z,8.70
2022-11-08T22:13:42.627Z,8.70
2022-11-08T22:16:09.201Z,8.70
2022-11-08T22:18:58.742Z,8.60
2022-11-08T22:21:52.319Z,8.60
2022-11-08T22:24:23.045Z,8.60
2022-11-08T22:26:51.284Z,8.60
2022-11-08T22:29:18.143Z,8.50
2022-11-08T22:31:45.034Z,8.50
2022-11-08T22:34:11.890Z,8.50
2022-11-08T22:36:44.365Z,8.50
2022-11-08T22:39:16.185Z,8.40
2022-11-08T22:41:47.433Z,8.40
2022-11-08T22:44:14.820Z,8.40
2022-11-08T22:46:42.313Z,8.40
2022-11-08T22:49:09.526Z,8.40
2022-11-08T22:51:36.135Z,8.40
2022-11-08T22:54:02.823Z,8.40
2022-11-08T22:56:29.374Z,8.40
2022-11-08T22:58:56.407Z,8.40
2022-11-08T23:01:23.339Z,8.40
2022-11-08T23:03:49.907Z,8.40
2022-11-08T23:06:16.489Z,8.40
2022-11-08T23:08:43.451Z,8.40
2022-11-08T23:11:29.204Z,8.30
2022-11-08T23:14:14.631Z,8.30
2022-11-08T23:16:44.901Z,8.30
2022-11-08T23:19:38.508Z,8.30
2022-11-08T23:22:25.360Z,8.30
2022-11-08T23:24:52.086Z,8.30
2022-11-08T23:27:38.059Z,8.40
2022-11-08T23:30:25.874Z,8.30
2022-11-08T23:32:52.914Z,8.30
2022-11-08T23:35:20.863Z,8.20
2022-11-08T23:37:48.550Z,8.30
2022-11-08T23:40:35.982Z,8.20
2022-11-08T23:43:32.357Z,8.20
2022-11-08T23:46:07.402Z,8.20
2022-11-08T23:48:34.504Z,8.20
2022-11-08T23:51:01.069Z,8.10
2022-11-08T23:53:28.134Z,8.10
2022-11-08T23:55:55.198Z,8.00
2022-11-08T23:58:22.833Z,8.00
